createdAt,value
2023-03-01T00:04:57.653Z,32.28
2023-03-01T00:10:00.238Z,32.10
2023-03-01T00:15:02.882Z,28.60
2023-03-01T00:20:11.042Z,28.67
2023-03-01T00:25:13.804Z,20.60
2023-03-01T00:30:16.757Z,22.27
2023-03-01T00:35:19.433Z,26.38
2023-03-01T00:40:22.097Z,33.77
2023-03-01T00:45:25.214Z,22.38
2023-03-01T00:50:28.450Z,22.67
2023-03-01T00:55:31.145Z,25.33
2023-03-01T01:00:33.717Z,21.65
2023-03-01T01:05:36.519Z,24.77
2023-03-01T01:10:39.201Z,20.33
2023-03-01T01:15:42.253Z,26.20
2023-03-01T01:20:44.878Z,15.93
2023-03-01T01:25:47.512Z,24.27
2023-03-01T01:30:50.127Z,23.10
2023-03-01T01:35:53.505Z,19.15
2023-03-01T01:40:56.118Z,21.33
2023-03-01T01:46:03.481Z,26.33
2023-03-01T01:51:06.315Z,29.60
2023-03-01T01:56:13.202Z,17.50
2023-03-01T02:01:15.820Z,21.17
2023-03-01T02:06:30.683Z,25.33
2023-03-01T02:11:34.727Z,22.40
2023-03-01T02:16:37.601Z,27.17
2023-03-01T02:21:48.865Z,27.07
2023-03-01T02:26:56.215Z,30.85
2023-03-01T02:32:01.510Z,22.73
2023-03-01T02:37:09.730Z,28.42
2023-03-01T02:42:18.173Z,25.73
2023-03-01T02:47:20.842Z,24.20
2023-03-01T02:52:37.337Z,25.45
2023-03-01T02:57:45.506Z,19.57
2023-03-01T03:02:50.352Z,29.85
2023-03-01T03:08:01.833Z,33.80
2023-03-01T03:13:13.128Z,34.90
2023-03-01T03:18:18.176Z,38.22
2023-03-01T03:23:24.686Z,31.70
2023-03-01T03:28:27.387Z,22.52
2023-03-01T03:33:30.121Z,25.08
2023-03-01T03:38:33.025Z,35.03
2023-03-01T03:43:38.144Z,32.30
2023-03-01T03:48:43.248Z,41.30
2023-03-01T03:53:46.376Z,34.90
2023-03-01T03:58:48.934Z,39.72
2023-03-01T04:03:55.596Z,34.47
2023-03-01T04:09:00.170Z,30.77
2023-03-01T04:14:02.820Z,35.03
2023-03-01T04:19:07.597Z,33.17
2023-03-01T04:24:10.853Z,39.65
2023-03-01T04:29:13.507Z,28.33
2023-03-01T04:34:16.167Z,29.17
2023-03-01T04:39:18.694Z,26.53
2023-03-01T04:44:21.244Z,31.08
2023-03-01T04:49:23.964Z,24.00
2023-03-01T04:54:27.463Z,32.07
2023-03-01T04:59:30.308Z,24.13
2023-03-01T05:04:32.976Z,21.77
2023-03-01T05:09:35.727Z,30.15
2023-03-01T05:14:39.741Z,25.45
2023-03-01T05:19:43.837Z,26.43
2023-03-01T05:24:48.005Z,30.27
2023-03-01T05:29:50.600Z,34.00
2023-03-01T05:34:53.393Z,24.10
2023-03-01T05:39:55.927Z,25.88
2023-03-01T05:44:58.537Z,17.50
2023-03-01T05:50:01.464Z,26.67
2023-03-01T05:55:04.233Z,19.33
2023-03-01T06:00:07.613Z,29.88
2023-03-01T06:05:15.982Z,21.42
2023-03-01T06:10:21.119Z,34.20
2023-03-01T06:15:24.291Z,26.35
2023-03-01T06:20:29.365Z,24.17
2023-03-01T06:25:32.258Z,60.17
2023-03-01T06:30:34.928Z,41.38
2023-03-01T06:41:12.108Z,47.42
2023-03-01T06:46:15.008Z,62.90
2023-03-01T06:51:17.632Z,58.70
2023-03-01T06:56:20.554Z,56.07
2023-03-01T07:01:23.351Z,48.17
2023-03-01T07:06:26.506Z,55.38
2023-03-01T07:11:29.254Z,56.08
2023-03-01T07:16:32.437Z,57.72
2023-03-01T07:21:35.669Z,69.83
2023-03-01T07:26:38.698Z,69.35
2023-03-01T07:31:41.826Z,64.47
2023-03-01T07:36:46.456Z,56.72
2023-03-01T07:41:49.099Z,66.07
2023-03-01T07:46:59.365Z,52.67
2023-03-01T07:52:02.217Z,57.08
2023-03-01T07:57:05.064Z,65.63
2023-03-01T08:02:08.068Z,59.60
2023-03-01T08:07:10.861Z,54.63
2023-03-01T08:12:13.770Z,52.53
2023-03-01T08:17:16.637Z,67.45
2023-03-01T08:22:19.729Z,58.17
2023-03-01T08:27:24.559Z,47.85
2023-03-01T08:32:27.415Z,58.25
2023-03-01T08:37:32.229Z,78.70
2023-03-01T08:42:35.043Z,70.25
2023-03-01T08:47:38.003Z,75.30
2023-03-01T08:52:40.820Z,73.40
2023-03-01T08:57:43.530Z,61.63
2023-03-01T09:02:46.283Z,55.30
2023-03-01T09:07:49.017Z,58.47
2023-03-01T09:12:53.004Z,55.50
2023-03-01T09:17:56.283Z,42.05
2023-03-01T09:22:59.447Z,45.92
2023-03-01T09:28:02.637Z,43.43
2023-03-01T09:33:05.332Z,44.08
2023-03-01T09:38:08.041Z,34.15
2023-03-01T09:43:23.905Z,30.75
2023-03-01T09:48:31.109Z,31.40
2023-03-01T09:53:36.496Z,32.27
2023-03-01T09:59:26.257Z,33.13
2023-03-01T10:04:48.527Z,30.35
2023-03-01T10:09:51.257Z,15.77
2023-03-01T10:15:09.272Z,23.15
2023-03-01T10:20:31.305Z,26.10
2023-03-01T10:25:42.441Z,23.48
2023-03-01T10:30:46.604Z,29.50
2023-03-01T10:35:49.846Z,33.13
2023-03-01T10:40:54.263Z,30.92
2023-03-01T10:45:56.970Z,32.87
2023-03-01T10:50:59.570Z,28.00
2023-03-01T10:56:14.820Z,33.47
2023-03-01T11:01:17.591Z,32.70
2023-03-01T11:06:23.878Z,30.45
2023-03-01T11:11:36.369Z,24.50
2023-03-01T11:16:41.480Z,25.33
2023-03-01T11:22:15.514Z,28.33
2023-03-01T11:27:21.099Z,24.33
2023-03-01T11:32:28.412Z,27.77
2023-03-01T11:37:38.746Z,23.53
2023-03-01T11:43:03.449Z,24.63
2023-03-01T11:48:24.733Z,24.02
2023-03-01T11:53:34.347Z,23.70
2023-03-01T11:58:39.964Z,24.55
2023-03-01T12:03:48.684Z,20.97
2023-03-01T12:09:29.337Z,20.02
2023-03-01T12:14:48.247Z,28.20
2023-03-01T12:20:02.846Z,27.13
2023-03-01T12:25:28.965Z,26.70
2023-03-01T12:30:50.201Z,26.53
2023-03-01T12:36:17.278Z,29.30
2023-03-01T12:41:37.891Z,26.80
2023-03-01T12:46:53.898Z,27.60
2023-03-01T12:52:15.108Z,28.38
2023-03-01T12:57:46.473Z,35.40
2023-03-01T13:02:51.928Z,32.80
2023-03-01T13:08:16.266Z,27.25
2023-03-01T13:13:24.856Z,25.90
2023-03-01T13:18:32.962Z,27.05
2023-03-01T13:23:39.050Z,19.63
2023-03-01T13:28:57.028Z,28.05
2023-03-01T13:34:00.945Z,24.33
2023-03-01T13:39:28.889Z,20.40
2023-03-01T13:44:37.357Z,21.02
2023-03-01T13:50:05.322Z,21.93
2023-03-01T13:55:37.625Z,22.15
2023-03-01T14:00:41.749Z,25.00
2023-03-01T14:06:12.827Z,26.52
2023-03-01T14:11:40.214Z,21.00
2023-03-01T14:16:49.016Z,14.73
2023-03-01T14:22:23.569Z,22.08
2023-03-01T14:27:46.166Z,25.55
2023-03-01T14:32:59.940Z,19.77
2023-03-01T14:38:02.940Z,17.63
2023-03-01T14:43:18.972Z,20.67
2023-03-01T14:48:22.716Z,16.13
2023-03-01T14:53:28.940Z,18.23
2023-03-01T14:58:35.159Z,17.60
2023-03-01T15:03:49.430Z,17.77
2023-03-01T15:08:55.125Z,17.40
2023-03-01T15:13:58.287Z,16.70
2023-03-01T15:19:03.751Z,20.90
2023-03-01T15:24:13.122Z,12.00
2023-03-01T15:29:20.814Z,17.42
2023-03-01T15:34:33.319Z,14.50
2023-03-01T15:39:44.474Z,15.57
2023-03-01T15:44:47.284Z,19.08
2023-03-01T15:49:55.692Z,21.05
2023-03-01T15:55:02.401Z,16.60
2023-03-01T16:00:12.600Z,15.97
2023-03-01T16:05:25.150Z,18.08
2023-03-01T16:10:28.634Z,23.30
2023-03-01T16:15:35.664Z,17.15
2023-03-01T16:20:38.754Z,16.58
2023-03-01T16:25:41.787Z,19.80
2023-03-01T16:30:49.298Z,20.55
2023-03-01T16:35:52.428Z,18.10
2023-03-01T16:40:55.487Z,16.65
2023-03-01T16:46:00.008Z,19.05
2023-03-01T16:51:03.209Z,19.70
2023-03-01T16:56:11.306Z,24.75
2023-03-01T17:01:20.010Z,25.10
2023-03-01T17:06:24.741Z,20.20
2023-03-01T17:11:27.635Z,18.17
2023-03-01T17:16:30.503Z,27.10
2023-03-01T17:21:33.586Z,19.30
2023-03-01T17:26:36.571Z,26.27
2023-03-01T17:31:39.530Z,24.65
2023-03-01T17:36:44.925Z,23.10
2023-03-01T17:41:47.847Z,32.33
2023-03-01T17:46:50.604Z,27.60
2023-03-01T17:51:53.638Z,25.38
2023-03-01T17:56:56.786Z,26.67
2023-03-01T18:02:01.865Z,31.10
2023-03-01T18:07:04.846Z,23.00
2023-03-01T18:12:07.909Z,23.92
2023-03-01T18:17:12.377Z,24.92
2023-03-01T18:22:16.086Z,30.60
2023-03-01T18:27:19.216Z,25.25
2023-03-01T18:32:22.383Z,29.70
2023-03-01T18:37:25.486Z,29.50
2023-03-01T18:42:28.291Z,22.58
2023-03-01T18:47:31.608Z,30.45
2023-03-01T18:52:34.347Z,34.53
2023-03-01T18:57:37.201Z,28.87
2023-03-01T19:02:40.224Z,31.08
2023-03-01T19:07:43.956Z,32.10
2023-03-01T19:12:47.347Z,29.75
2023-03-01T19:17:50.358Z,36.25
2023-03-01T19:22:53.204Z,35.90
2023-03-01T19:27:56.218Z,26.98
2023-03-01T19:32:58.902Z,25.13
2023-03-01T19:38:01.619Z,28.38
2023-03-01T19:43:04.330Z,24.52
2023-03-01T19:48:07.147Z,25.60
2023-03-01T19:53:09.925Z,29.52
2023-03-01T19:58:13.287Z,28.88
2023-03-01T20:03:16.029Z,24.67
2023-03-01T20:08:18.741Z,27.92
2023-03-01T20:13:21.530Z,32.97
2023-03-01T20:18:24.739Z,35.58
2023-03-01T20:23:28.491Z,44.67
2023-03-01T20:28:31.440Z,34.45
2023-03-01T20:33:34.652Z,38.20
2023-03-01T20:38:38.246Z,49.83
2023-03-01T20:43:43.980Z,46.35
2023-03-01T20:48:46.751Z,58.38
2023-03-01T20:53:49.733Z,43.05
2023-03-01T20:58:52.512Z,49.72
2023-03-01T21:03:56.180Z,42.93
2023-03-01T21:15:52.096Z,41.10
2023-03-01T21:20:54.733Z,34.72
2023-03-01T21:26:06.054Z,38.83
2023-03-01T21:31:19.417Z,27.87
2023-03-01T21:36:23.877Z,37.47
2023-03-01T21:41:29.686Z,34.42
2023-03-01T21:46:34.516Z,32.35
2023-03-01T21:51:37.739Z,35.38
2023-03-01T21:56:41.093Z,35.07
2023-03-01T22:01:43.978Z,45.47
2023-03-01T22:06:47.594Z,41.40
2023-03-01T22:11:54.181Z,41.85
2023-03-01T22:16:58.199Z,46.05
2023-03-01T22:22:01.103Z,59.67
2023-03-01T22:27:04.121Z,47.35
2023-03-01T22:32:06.953Z,42.53
2023-03-01T22:37:09.631Z,46.20
2023-03-01T22:42:12.389Z,42.55
2023-03-01T22:47:15.108Z,45.57
2023-03-01T22:52:18.506Z,48.50
2023-03-01T22:57:21.150Z,46.03
2023-03-01T23:02:25.546Z,53.60
2023-03-01T23:07:28.129Z,53.35
2023-03-01T23:12:32.161Z,53.83
2023-03-01T23:17:34.779Z,42.35
2023-03-01T23:22:38.868Z,42.60
2023-03-01T23:27:41.607Z,47.25
2023-03-01T23:32:44.675Z,37.40
2023-03-01T23:37:47.338Z,52.73
2023-03-01T23:42:49.883Z,44.00
2023-03-01T23:47:52.573Z,50.38
2023-03-01T23:52:55.177Z,53.38
2023-03-01T23:57:57.782Z,57.17
